Time;durP1;ratioP1;P1;durP2;ratioP2;P2;SDS_P1;SDS_P2;PMS_P1;PMS_P2;Temp;Humidity;BMP_temperature;BMP_pressure;BME280_temperature;BME280_humidity;BME280_pressure;Samples;Min_cycle;Max_cycle;Signal;HPM_P1;HPM_P2
2022/05/17 04:22:35;;;;;;;25.15;14.35;;;;;;;11.79;100.00;100763.34;5109089;27;20146;-72
2022/05/17 04:25:01;;;;;;;14.18;8.65;;;;;;;11.84;100.00;100757.53;5109527;28;20137;-73
2022/05/17 04:27:27;;;;;;;16.70;8.77;;;;;;;11.84;100.00;100762.88;5109388;28;20059;-73
2022/05/17 04:29:53;;;;;;;17.48;9.88;;;;;;;11.86;100.00;100761.69;5109862;28;20040;-72
2022/05/17 04:32:19;;;;;;;13.60;8.02;;;;;;;11.94;100.00;100756.34;5109054;28;20038;-73
2022/05/17 04:34:44;;;;;;;11.20;7.47;;;;;;;11.97;100.00;100757.00;5109394;28;20475;-72
2022/05/17 04:37:10;;;;;;;16.33;9.07;;;;;;;12.01;100.00;100761.00;5109275;28;20028;-72
2022/05/17 04:39:37;;;;;;;15.38;8.07;;;;;;;12.07;100.00;100761.16;5109208;28;20518;-73
2022/05/17 04:42:06;;;;;;;22.17;11.25;;;;;;;12.12;100.00;100760.63;5108895;28;20420;-74
2022/05/17 04:44:32;;;;;;;17.60;8.45;;;;;;;12.17;100.00;100752.94;5109220;28;20438;-74
2022/05/17 04:46:57;;;;;;;13.02;8.52;;;;;;;12.25;100.00;100757.44;5109031;28;20092;-73
2022/05/17 04:49:23;;;;;;;12.45;8.25;;;;;;;12.31;100.00;100765.59;5109059;28;20047;-73
2022/05/17 04:51:52;;;;;;;12.38;7.22;;;;;;;12.39;100.00;100770.09;5108687;28;20039;-73
2022/05/17 04:54:20;;;;;;;15.90;9.27;;;;;;;12.48;100.00;100766.38;5107841;28;20531;-72
2022/05/17 04:56:46;;;;;;;12.70;7.22;;;;;;;12.54;100.00;100768.38;5108929;28;20058;-73
2022/05/17 04:59:11;;;;;;;12.90;8.52;;;;;;;12.62;100.00;100771.00;5107631;28;20502;-73
2022/05/17 05:01:48;;;;;;;14.57;8.15;;;;;;;12.75;100.00;100775.78;5074635;28;20036;-73
2022/05/17 05:04:14;;;;;;;13.82;8.63;;;;;;;12.77;100.00;100769.25;5074145;28;20039;-73
2022/05/17 05:06:39;;;;;;;10.93;8.00;;;;;;;12.93;100.00;100781.72;5107402;28;20071;-73
2022/05/17 05:09:07;;;;;;;16.13;8.23;;;;;;;13.03;100.00;100776.94;5108773;28;20423;-73
2022/05/17 05:11:33;;;;;;;13.10;9.38;;;;;;;13.15;100.00;100780.06;5108533;28;20034;-73
2022/05/17 05:13:58;;;;;;;13.50;7.82;;;;;;;13.28;100.00;100775.00;5108533;28;20035;-73
2022/05/17 05:16:23;;;;;;;12.25;7.80;;;;;;;13.46;100.00;100781.91;5108530;28;20039;-73
2022/05/17 05:18:50;;;;;;;12.32;8.65;;;;;;;13.61;100.00;100788.13;5108435;28;20066;-74
2022/05/17 05:21:16;;;;;;;13.27;8.27;;;;;;;13.75;100.00;100792.69;5108461;28;20439;-73
2022/05/17 05:23:43;;;;;;;13.45;7.35;;;;;;;13.84;100.00;100801.50;5108138;28;20039;-73
2022/05/17 05:26:10;;;;;;;11.02;7.00;;;;;;;13.97;100.00;100796.34;5108191;28;20042;-73
2022/05/17 05:28:37;;;;;;;;;;;;;;;14.07;100.00;100807.63;5108789;28;20473;-73
2022/05/17 05:31:03;;;;;;;14.95;7.50;;;;;;;14.16;100.00;100794.16;5108179;28;20011;-73
2022/05/17 05:33:31;;;;;;;12.57;6.82;;;;;;;14.29;100.00;100797.03;5095336;28;20038;-74
2022/05/17 05:35:58;;;;;;;11.80;7.35;;;;;;;14.36;100.00;100806.84;5094548;28;20032;-74
2022/05/17 05:38:24;;;;;;;17.80;7.70;;;;;;;14.49;100.00;100802.72;5094517;28;20450;-74
2022/05/17 05:40:50;;;;;;;13.35;7.70;;;;;;;14.60;100.00;100802.22;5092953;28;20032;-73
2022/05/17 05:43:16;;;;;;;11.95;7.35;;;;;;;14.74;100.00;100801.41;5094095;28;20528;-73
2022/05/17 05:45:41;;;;;;;11.52;7.43;;;;;;;14.87;100.00;100795.38;5076085;28;20044;-74
2022/05/17 05:48:08;;;;;;;9.30;6.57;;;;;;;15.03;100.00;100810.41;5094298;28;20047;-73
2022/05/17 05:50:34;;;;;;;11.23;6.80;;;;;;;15.13;100.00;100802.91;5093194;28;20053;-74
2022/05/17 05:53:06;;;;;;;12.75;6.75;;;;;;;15.26;100.00;100802.19;5094025;28;20074;-73
2022/05/17 05:55:32;;;;;;;12.23;6.53;;;;;;;15.36;100.00;100806.22;5094171;28;20032;-73
2022/05/17 05:57:58;;;;;;;11.82;6.30;;;;;;;15.46;100.00;100813.97;5094066;28;20036;-74
2022/05/17 06:00:25;;;;;;;10.70;6.63;;;;;;;15.59;100.00;100813.28;5094076;28;20081;-73
2022/05/17 06:02:52;;;;;;;15.88;6.95;;;;;;;15.67;100.00;100811.31;5093806;28;20605;-73
2022/05/17 06:05:18;;;;;;;11.93;8.00;;;;;;;15.77;100.00;100810.16;5094119;28;20032;-73
2022/05/17 06:07:44;;;;;;;20.25;6.50;;;;;;;15.89;98.32;100816.66;5092806;28;20418;-73
2022/05/17 06:10:12;;;;;;;27.27;7.85;;;;;;;16.04;97.17;100817.41;5093970;28;20807;-74
2022/05/17 06:12:38;;;;;;;41.03;9.95;;;;;;;16.20;98.13;100816.28;5093628;28;20039;-73
2022/05/17 06:15:04;;;;;;;64.65;13.88;;;;;;;16.29;97.27;100815.09;5093832;28;20044;-71
2022/05/17 06:17:32;;;;;;;30.77;10.18;;;;;;;16.42;98.21;100811.66;5093772;28;20591;-71
2022/05/17 06:19:58;;;;;;;17.30;6.90;;;;;;;16.51;97.42;100813.19;5093562;28;20048;-71
2022/05/17 06:22:25;;;;;;;20.75;6.72;;;;;;;16.64;95.88;100813.25;5093601;28;20044;-71
2022/05/17 06:24:51;;;;;;;19.52;7.00;;;;;;;16.67;93.33;100807.47;5093709;28;20077;-71
2022/05/17 06:27:16;;;;;;;7.20;5.75;;;;;;;16.75;91.84;100815.38;5092478;28;20039;-72
2022/05/17 06:29:42;;;;;;;10.35;6.13;;;;;;;16.81;90.85;100811.06;5093461;28;20040;-73
2022/05/17 06:32:13;;;;;;;10.75;6.03;;;;;;;16.89;89.04;100810.91;5093290;28;20054;-74
2022/05/17 06:34:39;;;;;;;9.50;6.18;;;;;;;16.96;88.12;100806.38;5076207;28;20036;-74
2022/05/17 06:37:06;;;;;;;9.73;5.90;;;;;;;17.07;88.26;100803.09;5092050;28;20036;-74
2022/05/17 06:39:33;;;;;;;8.43;5.88;;;;;;;17.20;88.02;100813.06;5092020;28;20059;-74
2022/05/17 06:42:00;;;;;;;10.47;5.50;;;;;;;17.38;88.16;100815.19;5093032;28;20488;-74
2022/05/17 06:44:27;;;;;;;8.38;5.28;;;;;;;17.44;86.28;100803.59;5092449;28;20130;-73
2022/05/17 06:46:54;;;;;;;9.98;5.15;;;;;;;17.58;86.43;100809.84;5093246;28;20036;-74
2022/05/17 06:49:21;;;;;;;9.02;5.03;;;;;;;17.66;87.14;100806.13;5093112;28;20438;-74
2022/05/17 06:51:47;;;;;;;9.45;5.47;;;;;;;17.83;85.68;100808.22;5092713;28;20389;-74
2022/05/17 06:54:15;;;;;;;9.65;5.38;;;;;;;17.95;84.61;100811.16;5091816;28;20063;-74
2022/05/17 06:56:40;;;;;;;11.35;5.47;;;;;;;18.05;84.96;100808.84;5092762;28;20067;-73
2022/05/17 06:59:07;;;;;;;9.25;5.30;;;;;;;18.17;83.97;100801.78;5091492;28;20036;-74
2022/05/17 07:01:33;;;;;;;7.75;4.93;;;;;;;18.29;82.83;100809.25;5092679;28;20101;-73
2022/05/17 07:03:59;;;;;;;10.23;5.47;;;;;;;18.37;82.94;100809.00;5074480;28;20064;-74
2022/05/17 07:06:25;;;;;;;12.15;5.38;;;;;;;18.42;80.18;100806.50;5092653;28;20043;-74
2022/05/17 07:08:50;;;;;;;9.85;5.00;;;;;;;18.59;78.95;100815.81;5092849;28;20428;-71
2022/05/17 07:14:00;;;;;;;9.60;5.30;;;;;;;18.92;78.59;100818.44;5092387;28;20388;-72
2022/05/17 07:16:26;;;;;;;9.38;5.00;;;;;;;19.08;78.79;100817.09;5092401;28;20038;-71
2022/05/17 07:18:51;;;;;;;14.07;4.93;;;;;;;19.23;78.05;100809.56;5092344;28;20036;-72
2022/05/17 07:21:16;;;;;;;10.68;4.70;;;;;;;19.40;78.01;100812.56;5091000;28;20043;-72
2022/05/17 07:23:43;;;;;;;7.97;4.97;;;;;;;19.55;78.09;100806.84;5090945;28;20398;-71
2022/05/17 07:26:11;;;;;;;6.55;4.63;;;;;;;19.65;76.53;100812.63;5092275;28;20032;-72
2022/05/17 07:28:40;;;;;;;;;;;;;;;19.76;74.96;100811.94;5092781;28;20092;-72
2022/05/17 07:31:06;;;;;;;9.60;5.63;;;;;;;19.91;74.12;100806.19;5092251;28;19912;-72
2022/05/17 07:33:32;;;;;;;10.30;4.97;;;;;;;20.07;72.58;100802.09;5092002;28;20036;-71
2022/05/17 07:35:57;;;;;;;9.35;5.22;;;;;;;20.22;71.75;100807.16;5092079;28;20036;-72
2022/05/17 07:38:23;;;;;;;9.27;5.28;;;;;;;20.30;70.87;100809.56;5090921;28;20504;-73
2022/05/17 07:40:50;;;;;;;7.85;5.63;;;;;;;20.50;70.57;100804.81;5091977;28;20516;-72
2022/05/17 07:43:16;;;;;;;8.97;5.37;;;;;;;20.68;69.74;100800.47;5091125;28;20433;-73
2022/05/17 07:45:41;;;;;;;11.27;5.50;;;;;;;20.81;68.60;100797.59;5091929;28;20286;-71
2022/05/17 07:48:09;;;;;;;7.07;4.97;;;;;;;20.92;68.04;100798.69;5092098;28;20063;-72
2022/05/17 07:50:34;;;;;;;6.88;5.05;;;;;;;21.05;66.76;100801.22;5092005;28;20036;-72
2022/05/17 07:53:07;;;;;;;7.20;5.10;;;;;;;21.18;66.46;100802.94;5091555;28;20516;-74
2022/05/17 07:55:35;;;;;;;8.40;5.28;;;;;;;21.28;65.21;100803.22;5091657;28;20408;-76
2022/05/17 07:58:02;;;;;;;12.50;5.25;;;;;;;21.34;65.29;100789.59;5091791;28;20510;-74
2022/05/17 08:00:27;;;;;;;97.95;20.13;;;;;;;21.47;65.92;100794.00;5091714;28;20063;-76
2022/05/17 08:02:56;;;;;;;8.63;5.10;;;;;;;21.70;63.74;100797.81;5091668;28;20750;-75
2022/05/17 08:05:22;;;;;;;9.93;5.50;;;;;;;21.87;63.35;100791.47;5091634;28;20043;-76
2022/05/17 08:07:48;;;;;;;8.15;4.70;;;;;;;21.79;61.51;100794.53;5091796;28;20488;-76
2022/05/17 08:10:14;;;;;;;7.65;4.65;;;;;;;21.86;63.85;100797.13;5091772;28;20043;-74
2022/05/17 08:12:39;;;;;;;8.63;4.95;;;;;;;22.09;62.96;100790.91;5091263;28;20044;-74
2022/05/17 08:15:06;;;;;;;6.80;4.85;;;;;;;22.20;63.60;100799.06;5091587;28;20036;-74
2022/05/17 08:17:32;;;;;;;8.30;4.95;;;;;;;22.30;62.23;100797.63;5091592;28;20493;-73
2022/05/17 08:19:57;;;;;;;8.43;4.35;;;;;;;22.38;60.42;100787.25;5091694;28;20056;-73
2022/05/17 08:22:23;;;;;;;7.20;4.50;;;;;;;22.57;61.40;100789.81;5089809;28;20040;-73
2022/05/17 08:27:36;;;;;;;7.07;4.72;;;;;;;22.78;59.15;100783.75;5091241;28;20530;-73
2022/05/17 08:30:09;;;;;;;7.85;4.45;;;;;;;22.91;58.48;100785.38;5091409;28;20060;-73
2022/05/17 08:35:19;;;;;;;11.77;4.90;;;;;;;22.88;58.75;100785.84;5090194;28;20040;-75
2022/05/17 08:37:44;;;;;;;12.10;4.97;;;;;;;23.11;58.79;100785.78;5091426;28;20034;-75
2022/05/17 08:40:18;;;;;;;5.93;3.90;;;;;;;22.97;56.31;100785.25;5091404;28;20656;-75
2022/05/17 08:42:48;;;;;;;6.75;3.75;;;;;;;23.10;55.87;100788.75;5089920;28;20074;-73
2022/05/17 08:45:17;;;;;;;7.40;4.80;;;;;;;23.05;56.07;100781.31;5090183;28;20439;-73
2022/05/17 08:47:52;;;;;;;5.13;3.50;;;;;;;23.20;56.83;100786.19;5091543;28;20040;-73
2022/05/17 08:50:25;;;;;;;6.38;3.72;;;;;;;23.26;53.78;100787.94;5091338;28;20036;-73
2022/05/17 08:52:53;;;;;;;6.00;3.35;;;;;;;23.45;53.72;100783.13;5089951;28;20149;-73
2022/05/17 08:55:29;;;;;;;4.55;3.22;;;;;;;23.59;53.01;100786.34;5091255;28;20469;-73
2022/05/17 08:58:00;;;;;;;5.97;3.28;;;;;;;23.62;52.42;100780.47;5091284;28;20492;-73
2022/05/17 09:00:37;;;;;;;6.57;3.38;;;;;;;23.83;50.45;100785.16;5090070;28;20047;-73
2022/05/17 09:03:16;;;;;;;6.20;3.22;;;;;;;24.05;49.75;100790.66;5091136;28;20093;-73
2022/05/17 09:05:57;;;;;;;6.45;3.45;;;;;;;23.62;50.49;100783.19;5091170;28;20093;-73
2022/05/17 09:09:02;;;;;;;6.70;3.22;;;;;;;24.02;49.19;100783.81;5093669;28;20093;-73
2022/05/17 09:11:51;;;;;;;4.28;2.70;;;;;;;24.14;49.77;100786.44;5094057;28;20089;-73
2022/05/17 09:14:24;;;;;;;5.13;2.80;;;;;;;24.15;50.78;100787.28;5094724;28;20032;-73
2022/05/17 09:16:56;;;;;;;6.03;3.20;;;;;;;24.36;50.11;100791.94;5095116;28;20071;-73
2022/05/17 09:19:21;;;;;;;4.18;2.97;;;;;;;24.47;47.85;100787.47;5093459;28;20036;-74
2022/05/17 09:21:53;;;;;;;7.55;3.35;;;;;;;24.73;48.84;100794.06;5094333;28;20047;-73
2022/05/17 09:24:20;;;;;;;4.82;2.97;;;;;;;24.91;46.87;100793.75;5094774;28;20089;-74
2022/05/17 09:27:03;;;;;;;6.60;2.80;;;;;;;24.74;47.83;100790.28;5094548;28;20033;-74
2022/05/17 09:29:49;;;;;;;4.32;3.33;;;;;;;24.77;46.54;100778.84;5094628;28;20471;-73
2022/05/17 09:32:29;;;;;;;5.30;3.00;;;;;;;24.87;46.49;100778.97;5094286;28;20058;-73
2022/05/17 09:34:59;;;;;;;6.32;3.83;;;;;;;24.97;46.50;100779.09;5094544;28;20039;-73
2022/05/17 09:37:34;;;;;;;3.17;2.67;;;;;;;25.42;47.34;100777.94;5094578;28;20028;-73
2022/05/17 09:40:05;;;;;;;8.13;2.95;;;;;;;25.54;45.50;100778.59;5094343;28;20040;-73
2022/05/17 09:42:42;;;;;;;7.90;2.90;;;;;;;25.21;44.90;100770.66;5094111;28;20038;-73
2022/05/17 09:45:15;;;;;;;5.05;3.33;;;;;;;25.36;45.72;100776.25;5094766;28;20333;-74
2022/05/17 09:47:44;;;;;;;5.35;3.10;;;;;;;25.76;47.81;100767.63;5093225;28;20477;-73
2022/05/17 09:53:07;;;;;;;3.60;2.50;;;;;;;26.15;43.36;100768.19;5093917;28;20504;-74
2022/05/17 09:55:34;;;;;;;4.50;2.80;;;;;;;26.49;43.83;100765.91;5093920;28;20510;-74
2022/05/17 09:58:22;;;;;;;6.47;2.83;;;;;;;26.66;43.15;100768.44;5094774;28;20032;-73
2022/05/17 10:00:50;;;;;;;4.47;2.88;;;;;;;26.85;43.04;100759.75;5114359;28;20736;-74
2022/05/17 10:03:16;;;;;;;8.98;3.10;;;;;;;26.70;42.10;100755.06;5113506;28;20097;-74
2022/05/17 10:06:03;;;;;;;5.18;2.60;;;;;;;26.89;41.53;100749.94;5114388;28;20032;-73
2022/05/17 10:08:30;;;;;;;6.82;3.33;;;;;;;26.85;41.82;100749.66;5114325;28;20039;-74
2022/05/17 10:11:21;;;;;;;4.97;2.92;;;;;;;27.19;40.52;100750.03;5114174;28;20061;-73
2022/05/17 10:14:33;;;;;;;4.15;2.78;;;;;;;27.33;41.49;100741.31;5113899;28;20518;-74
2022/05/17 10:17:35;;;;;;;5.53;2.70;;;;;;;27.99;39.85;100741.28;5111929;28;20455;-74
2022/05/17 10:20:04;;;;;;;7.43;3.28;;;;;;;28.08;39.27;100734.94;5113995;28;20110;-74
2022/05/17 10:22:32;;;;;;;4.18;2.90;;;;;;;28.43;38.26;100735.97;5113788;28;20027;-74
2022/05/17 10:25:12;;;;;;;5.25;2.85;;;;;;;28.80;36.24;100730.03;5114051;28;20071;-75
2022/05/17 10:27:43;;;;;;;3.45;2.55;;;;;;;28.49;36.94;100734.00;5114089;28;20031;-74
2022/05/17 10:30:16;;;;;;;8.18;3.20;;;;;;;28.82;36.33;100727.84;5114069;28;20533;-74
2022/05/17 10:33:01;;;;;;;4.35;2.58;;;;;;;28.65;37.67;100724.63;5113588;28;20119;-74
2022/05/17 10:35:29;;;;;;;5.35;2.55;;;;;;;28.40;39.20;100722.81;5112732;28;20028;-74
2022/05/17 10:38:16;;;;;;;4.50;2.70;;;;;;;28.85;37.46;100721.78;5113879;28;20027;-74
2022/05/17 10:40:46;;;;;;;9.05;3.30;;;;;;;29.56;36.33;100720.47;5112367;28;20037;-75
2022/05/17 10:43:33;;;;;;;4.90;2.70;;;;;;;28.96;36.73;100717.09;5113689;28;20039;-75
2022/05/17 10:46:12;;;;;;;6.45;2.50;;;;;;;29.44;35.61;100720.00;5112610;28;20050;-75
2022/05/17 10:49:08;;;;;;;6.57;3.15;;;;;;;29.50;35.45;100720.78;5113757;28;20080;-75
2022/05/17 10:51:52;;;;;;;;;;;;;;;29.65;35.84;100713.25;5112997;28;20027;-72
2022/05/17 10:54:38;;;;;;;8.07;3.15;;;;;;;29.72;37.18;100707.41;5114221;28;20407;-74
2022/05/17 10:57:29;;;;;;;4.82;2.78;;;;;;;30.29;34.92;100704.91;5113569;28;20036;-72
2022/05/17 11:00:09;;;;;;;3.50;2.63;;;;;;;30.15;34.91;100710.28;5112301;28;20081;-73
2022/05/17 11:02:37;;;;;;;6.25;2.90;;;;;;;30.72;34.06;100703.81;5113092;27;20032;-73
2022/05/17 11:05:27;;;;;;;4.20;2.72;;;;;;;29.76;35.50;100696.69;5113318;28;20549;-74
2022/05/17 11:08:20;;;;;;;6.43;3.40;;;;;;;29.76;36.29;100702.19;5113193;28;20031;-73
2022/05/17 11:11:16;;;;;;;5.13;2.97;;;;;;;29.12;34.98;100698.59;5113095;28;20036;-72
2022/05/17 11:14:12;;;;;;;2.88;2.40;;;;;;;29.89;34.00;100698.75;5113139;28;20035;-73
2022/05/17 11:16:44;;;;;;;3.42;2.60;;;;;;;29.92;33.54;100696.22;5112727;28;20708;-72
2022/05/17 11:19:37;;;;;;;5.93;3.13;;;;;;;30.70;33.92;100695.03;5112917;28;20031;-73
2022/05/17 11:22:16;;;;;;;5.35;2.58;;;;;;;30.28;34.85;100690.34;5112487;28;20492;-73
2022/05/17 11:25:03;;;;;;;5.05;2.80;;;;;;;31.07;32.02;100696.13;5112924;28;20038;-74
2022/05/17 11:27:48;;;;;;;5.28;3.28;;;;;;;30.52;32.22;100691.16;5112789;28;20024;-73
2022/05/17 11:30:30;;;;;;;3.35;2.75;;;;;;;30.73;32.49;100696.38;5112543;28;20042;-73
2022/05/17 11:33:24;;;;;;;3.83;2.50;;;;;;;29.82;32.89;100676.31;5112640;28;20451;-72
2022/05/17 11:36:07;;;;;;;5.55;2.58;;;;;;;30.17;33.38;100681.41;5112622;28;20035;-73
2022/05/17 11:38:35;;;;;;;5.22;2.67;;;;;;;30.96;32.92;100670.72;5112544;28;20036;-73
2022/05/17 11:41:34;;;;;;;5.07;2.55;;;;;;;31.49;32.39;100669.59;5112465;28;20392;-73
2022/05/17 11:44:05;;;;;;;4.25;2.58;;;;;;;31.61;31.06;100667.16;5112457;28;20063;-72
2022/05/17 11:46:31;;;;;;;5.28;2.40;;;;;;;31.69;31.63;100671.16;5112510;28;20039;-72
2022/05/17 11:49:12;;;;;;;5.07;2.83;;;;;;;31.19;32.33;100670.91;5112543;28;20047;-73
2022/05/17 11:51:59;;;;;;;3.40;2.30;;;;;;;31.74;30.37;100666.34;5112138;28;20042;-73
2022/05/17 11:54:52;;;;;;;3.08;2.13;;;;;;;32.04;30.49;100656.72;5112287;28;20035;-72
2022/05/17 11:57:17;;;;;;;4.13;2.17;;;;;;;32.03;29.18;100660.59;5111238;28;20065;-73
2022/05/17 11:59:53;;;;;;;5.30;2.07;;;;;;;31.05;30.75;100665.38;5112432;28;20035;-72
2022/05/17 12:02:19;;;;;;;3.75;2.40;;;;;;;30.60;31.02;100653.13;5112063;28;20118;-73
2022/05/17 12:04:46;;;;;;;5.73;2.60;;;;;;;30.25;32.65;100660.72;5112193;28;20561;-73
2022/05/17 12:07:26;;;;;;;;;;;;;;;30.94;31.27;100656.47;5112530;28;20503;-73
2022/05/17 12:10:14;;;;;;;4.70;2.28;;;;;;;31.76;31.09;100644.88;5112198;28;19911;-73
2022/05/17 12:12:44;;;;;;;3.30;2.17;;;;;;;31.40;29.42;100641.94;5111772;28;20124;-73
2022/05/17 12:15:34;;;;;;;1.95;1.48;;;;;;;32.00;28.89;100636.41;5112254;28;20039;-73
2022/05/17 12:18:23;;;;;;;3.42;2.00;;;;;;;31.75;28.44;100632.19;5112945;28;20428;-73
2022/05/17 12:21:15;;;;;;;2.60;1.88;;;;;;;32.24;28.28;100633.44;5108756;28;20039;-73
2022/05/17 12:23:59;;;;;;;2.70;1.60;;;;;;;32.58;27.35;100635.72;5111843;28;20039;-73
2022/05/17 12:27:09;;;;;;;2.72;1.88;;;;;;;32.02;28.19;100625.09;5111940;28;20038;-73
2022/05/17 12:32:28;;;;;;;2.65;1.98;;;;;;;33.34;26.95;100618.44;5110833;28;20060;-73
2022/05/17 12:34:54;;;;;;;4.05;1.75;;;;;;;32.39;27.75;100613.00;5111982;28;20027;-73
2022/05/17 12:37:25;;;;;;;3.28;2.00;;;;;;;33.00;26.68;100622.63;5111922;28;20152;-73
2022/05/17 12:45:27;;;;;;;5.50;2.40;;;;;;;32.05;28.79;100607.94;5115872;28;20028;-73
2022/05/17 12:47:55;;;;;;;4.57;2.00;;;;;;;31.99;28.67;100607.22;5115979;28;20450;-73
2022/05/17 12:50:40;;;;;;;4.70;2.35;;;;;;;32.29;28.11;100604.97;5116012;27;20031;-72
2022/05/17 12:53:16;;;;;;;4.10;2.13;;;;;;;32.83;27.86;100590.19;5115820;28;20054;-73
2022/05/17 12:56:01;;;;;;;3.38;1.90;;;;;;;32.43;29.15;100600.25;5114718;28;20396;-74
2022/05/17 12:58:32;;;;;;;4.07;2.03;;;;;;;32.38;29.00;100592.91;5115819;27;20093;-74
2022/05/17 13:00:59;;;;;;;2.63;1.70;;;;;;;32.81;27.27;100597.16;5115884;28;20039;-74
2022/05/17 13:03:27;;;;;;;3.83;2.00;;;;;;;32.23;27.29;100595.16;5115532;28;20400;-74
2022/05/17 13:05:58;;;;;;;4.10;1.90;;;;;;;32.76;26.86;100587.03;5115652;28;20070;-74
2022/05/17 13:08:30;;;;;;;3.25;1.92;;;;;;;32.27;28.48;100583.19;5115881;28;20679;-73
2022/05/17 13:11:14;;;;;;;5.75;1.90;;;;;;;32.39;28.18;100582.69;5115712;28;20743;-73
2022/05/17 13:13:43;;;;;;;3.13;1.98;;;;;;;31.70;28.42;100576.44;5115456;28;20392;-73
2022/05/17 13:16:25;;;;;;;3.40;1.70;;;;;;;31.07;28.40;100578.69;5115516;28;20036;-74
2022/05/17 13:18:54;;;;;;;1.98;1.73;;;;;;;30.95;29.35;100564.59;5115468;28;20499;-74
2022/05/17 13:21:51;;;;;;;2.95;1.70;;;;;;;30.73;30.07;100570.75;5115204;28;20400;-74
2022/05/17 13:24:34;;;;;;;3.38;2.08;;;;;;;30.93;28.47;100569.56;5115487;28;20063;-73
2022/05/17 13:27:11;;;;;;;3.13;1.60;;;;;;;30.69;29.57;100568.88;5115442;28;20035;-74
2022/05/17 13:29:40;;;;;;;4.03;1.88;;;;;;;30.40;29.88;100583.59;5115360;28;20114;-73
2022/05/17 13:32:29;;;;;;;4.72;1.98;;;;;;;29.20;31.08;100567.13;5114998;28;20039;-74
2022/05/17 13:35:18;;;;;;;4.95;1.80;;;;;;;29.27;31.14;100565.97;5115199;28;20088;-73
2022/05/17 13:38:19;;;;;;;3.00;1.70;;;;;;;29.22;32.50;100558.66;5082808;28;20407;-73
2022/05/17 13:40:47;;;;;;;2.40;1.50;;;;;;;28.57;32.45;100558.91;5052365;28;20040;-73
2022/05/17 13:43:31;;;;;;;7.07;2.00;;;;;;;29.00;32.86;100561.03;5074231;28;20112;-73
2022/05/17 13:46:18;;;;;;;3.78;1.90;;;;;;;28.70;32.00;100549.22;5074366;28;20033;-73
2022/05/17 13:48:47;;;;;;;4.60;1.70;;;;;;;28.89;31.34;100546.59;5073286;28;20029;-73
2022/05/17 13:51:16;;;;;;;6.30;1.80;;;;;;;28.70;31.82;100546.47;5074261;28;20033;-74
2022/05/17 13:53:47;;;;;;;4.05;1.88;;;;;;;28.47;32.46;100547.19;5073380;28;20032;-73
2022/05/17 13:56:28;;;;;;;2.35;1.73;;;;;;;28.67;32.15;100544.28;5074218;28;20512;-74
2022/05/17 13:58:55;;;;;;;3.65;1.90;;;;;;;28.51;33.55;100543.59;5074144;28;20047;-73
2022/05/17 14:01:37;;;;;;;3.13;1.58;;;;;;;28.67;32.82;100544.28;5074031;28;20039;-73
2022/05/17 14:04:08;;;;;;;2.55;1.67;;;;;;;28.08;33.65;100537.00;5073986;28;20078;-73
2022/05/17 14:07:00;;;;;;;3.25;1.80;;;;;;;28.18;33.14;100536.94;5074044;28;20028;-74
2022/05/17 14:12:20;;;;;;;5.15;1.80;;;;;;;28.20;34.72;100542.97;5073643;28;20036;-73
2022/05/17 14:14:48;;;;;;;4.00;2.13;;;;;;;27.38;35.10;100527.97;5073790;28;20051;-73
2022/05/17 14:17:19;;;;;;;4.10;1.73;;;;;;;27.65;35.54;100527.59;5073642;28;20547;-72
2022/05/17 14:19:53;;;;;;;2.63;1.90;;;;;;;27.78;35.04;100527.88;5073477;28;20036;-73
2022/05/17 14:22:20;;;;;;;5.80;2.08;;;;;;;27.95;34.62;100526.66;5073027;28;20041;-74
2022/05/17 14:24:47;;;;;;;5.68;1.88;;;;;;;28.08;34.46;100520.56;5073619;28;20103;-73
2022/05/17 14:27:14;;;;;;;;;;;;;;;28.20;34.93;100518.31;5073753;28;20623;-72
2022/05/17 14:29:40;;;;;;;3.83;1.80;;;;;;;28.12;35.04;100516.19;5073258;28;19942;-72
2022/05/17 14:32:07;;;;;;;3.70;1.70;;;;;;;28.08;34.08;100521.38;5072938;28;20500;-73
2022/05/17 14:34:35;;;;;;;3.30;1.77;;;;;;;28.15;34.76;100510.13;5073211;28;20544;-73
2022/05/17 14:37:01;;;;;;;2.28;1.65;;;;;;;27.59;35.02;100513.13;5074152;28;20047;-73
2022/05/17 14:39:27;;;;;;;2.35;1.60;;;;;;;27.82;35.15;100511.69;5073275;28;20036;-73
2022/05/17 14:41:53;;;;;;;3.08;1.70;;;;;;;27.73;36.49;100519.66;5072855;28;20036;-73
2022/05/17 14:44:26;;;;;;;3.65;1.98;;;;;;;27.99;35.63;100514.88;5073124;28;20032;-73
2022/05/17 14:46:53;;;;;;;4.15;2.03;;;;;;;27.83;35.99;100505.09;5072952;28;20043;-73
2022/05/17 14:49:27;;;;;;;4.10;2.03;;;;;;;27.53;35.66;100506.03;5072995;28;20493;-73
2022/05/17 14:51:54;;;;;;;4.35;1.65;;;;;;;27.64;35.65;100504.06;5072593;28;20122;-73
2022/05/17 14:54:20;;;;;;;4.88;2.20;;;;;;;27.23;35.56;100502.28;5071569;28;20029;-73
2022/05/17 14:56:45;;;;;;;4.45;1.70;;;;;;;27.28;34.85;100496.81;5072742;28;20028;-73
2022/05/17 14:59:12;;;;;;;2.10;1.60;;;;;;;27.47;36.14;100499.78;5071419;28;20064;-73
2022/05/17 15:01:43;;;;;;;3.67;1.92;;;;;;;27.51;36.52;100498.09;5072708;28;20040;-73
2022/05/17 15:04:10;;;;;;;2.60;1.70;;;;;;;27.51;36.80;100497.28;5072707;28;20096;-73
2022/05/17 15:06:53;;;;;;;2.55;1.70;;;;;;;27.28;37.01;100496.81;5054134;28;20052;-72
2022/05/17 15:09:27;;;;;;;4.60;2.40;;;;;;;27.33;36.85;100498.72;5072752;28;20041;-73
2022/05/17 15:11:53;;;;;;;2.80;1.63;;;;;;;27.27;36.77;100495.19;5072374;28;20131;-73
2022/05/17 15:14:20;;;;;;;4.07;1.80;;;;;;;27.24;35.18;100490.25;5071216;28;20181;-73
2022/05/17 15:16:46;;;;;;;3.80;2.22;;;;;;;27.27;35.37;100494.38;5037983;28;20036;-75
2022/05/17 15:19:13;;;;;;;2.80;1.80;;;;;;;27.36;35.77;100494.59;5072457;28;20032;-73
2022/05/17 15:21:41;;;;;;;5.25;1.92;;;;;;;27.36;36.01;100500.09;5072085;28;20473;-73
2022/05/17 15:24:09;;;;;;;2.88;1.98;;;;;;;27.31;35.45;100496.25;5072178;28;20033;-73
2022/05/17 15:26:35;;;;;;;5.65;1.80;;;;;;;27.22;34.62;100489.72;5071039;28;20162;-73
2022/05/17 15:29:02;;;;;;;3.22;1.73;;;;;;;27.36;35.24;100480.94;5072317;28;20489;-73
2022/05/17 15:31:28;;;;;;;4.15;1.85;;;;;;;27.08;35.45;100485.13;5071993;28;20041;-72
2022/05/17 15:33:54;;;;;;;3.95;2.15;;;;;;;27.23;35.78;100488.63;5072147;28;20039;-73
2022/05/17 15:36:19;;;;;;;6.82;2.55;;;;;;;27.26;35.38;100490.00;5070795;28;20036;-72
2022/05/17 15:38:45;;;;;;;4.00;1.90;;;;;;;27.20;36.65;100483.72;5071897;28;20040;-73
2022/05/17 15:41:12;;;;;;;9.35;4.80;;;;;;;27.16;35.74;100482.63;5072088;28;20032;-73
2022/05/17 15:43:37;;;;;;;3.08;1.60;;;;;;;26.99;36.05;100487.56;5070440;28;20044;-73
2022/05/17 15:46:13;;;;;;;5.95;1.80;;;;;;;26.50;37.19;100479.97;5071939;28;20029;-74
2022/05/17 15:54:17;;;;;;;6.28;2.63;;;;;;;26.65;37.41;100482.69;5060541;28;20044;-74
2022/05/17 15:56:45;;;;;;;4.35;1.77;;;;;;;26.69;36.61;100481.06;5071811;28;20062;-73
2022/05/17 15:59:12;;;;;;;2.40;1.55;;;;;;;26.53;36.58;100493.06;5072022;28;20626;-74
2022/05/17 16:01:43;;;;;;;2.60;1.35;;;;;;;26.52;36.31;100483.22;5071513;28;20550;-73
2022/05/17 16:06:55;;;;;;;4.22;2.20;;;;;;;26.54;36.39;100475.59;5071821;28;20067;-74
2022/05/17 16:09:23;;;;;;;2.38;1.60;;;;;;;26.49;36.29;100475.59;5071560;28;20038;-73
2022/05/17 16:11:49;;;;;;;3.25;2.08;;;;;;;26.47;36.58;100478.63;5071422;28;20416;-73
2022/05/17 16:14:23;;;;;;;4.88;1.92;;;;;;;26.55;36.78;100482.69;5071657;28;20068;-75
2022/05/17 16:16:53;;;;;;;3.28;1.60;;;;;;;26.47;37.09;100481.34;5071455;28;20059;-76
2022/05/17 16:19:26;;;;;;;4.00;1.83;;;;;;;26.56;37.27;100481.59;5071842;28;20383;-76
2022/05/17 16:21:56;;;;;;;3.67;1.60;;;;;;;26.51;36.56;100474.22;5071713;28;20127;-75
2022/05/17 16:24:23;;;;;;;2.28;1.52;;;;;;;26.56;37.22;100475.31;5071692;28;20040;-75
2022/05/17 16:26:50;;;;;;;2.33;1.70;;;;;;;26.57;36.43;100475.03;5071529;28;20028;-75
2022/05/17 16:29:16;;;;;;;3.22;1.95;;;;;;;26.58;36.87;100473.94;5071648;28;20040;-77
2022/05/17 16:31:42;;;;;;;5.70;2.38;;;;;;;26.51;36.85;100467.94;5071100;28;20047;-76
2022/05/17 16:34:09;;;;;;;3.55;1.98;;;;;;;26.51;37.67;100468.75;5071347;28;20388;-76
2022/05/17 16:36:35;;;;;;;2.90;1.50;;;;;;;26.50;37.63;100469.84;5071623;28;20075;-74
2022/05/17 16:39:00;;;;;;;4.90;1.70;;;;;;;26.42;37.71;100466.88;5070086;28;20119;-74